createdAt,value
2022-09-14T00:00:43.968Z,93147.69
2022-09-14T00:01:45.455Z,93156.09
2022-09-14T00:02:47.143Z,93164.13
2022-09-14T00:03:52.744Z,93169.22
2022-09-14T00:04:54.215Z,93165.75
2022-09-14T00:05:55.633Z,93159.34
2022-09-14T00:06:57.095Z,93159.91
2022-09-14T00:07:58.632Z,93158.81
2022-09-14T00:09:00.878Z,93154.22
2022-09-14T00:10:02.356Z,93155.06
2022-09-14T00:11:07.829Z,93147.63
2022-09-14T00:12:09.559Z,93146.81
2022-09-14T00:13:12.392Z,93151.94
2022-09-14T00:14:14.266Z,93147.66
2022-09-14T00:15:15.866Z,93149.31
2022-09-14T00:16:20.376Z,93147.97
2022-09-14T00:17:21.845Z,93137.81
2022-09-14T00:18:23.253Z,93132.19
2022-09-14T00:19:26.495Z,93124.97
2022-09-14T00:20:27.952Z,93135.38
2022-09-14T00:21:29.363Z,93133.50
2022-09-14T00:22:30.815Z,93139.06
2022-09-14T00:23:34.401Z,93138.00
2022-09-14T00:24:35.977Z,93131.91
2022-09-14T00:25:37.451Z,93134.63
2022-09-14T00:26:40.187Z,93127.34
2022-09-14T00:27:41.615Z,93134.84
2022-09-14T00:28:45.264Z,93131.38
2022-09-14T00:29:47.199Z,93127.13
2022-09-14T00:30:48.637Z,93140.50
2022-09-14T00:31:50.312Z,93145.56
2022-09-14T00:32:51.938Z,93142.63
2022-09-14T00:33:54.007Z,93139.44
2022-09-14T00:34:55.489Z,93145.06
2022-09-14T00:36:04.253Z,93142.63
2022-09-14T00:37:05.751Z,93139.50
2022-09-14T00:38:07.196Z,93140.09
2022-09-14T00:39:09.479Z,93133.69
2022-09-14T00:40:11.492Z,93131.81
2022-09-14T00:41:18.388Z,93128.34
2022-09-14T00:42:21.133Z,93112.59
2022-09-14T00:43:22.559Z,93112.31
2022-09-14T00:45:00.019Z,93104.59
2022-09-14T00:46:02.149Z,93102.97
2022-09-14T00:47:03.681Z,93103.25
2022-09-14T00:48:05.230Z,93111.00
2022-09-14T00:49:10.380Z,93106.22
2022-09-14T00:50:12.182Z,93108.59
2022-09-14T00:51:15.278Z,93106.72
2022-09-14T00:52:20.113Z,93105.41
2022-09-14T00:53:22.419Z,93104.84
2022-09-14T00:54:24.443Z,93103.78
2022-09-14T00:55:25.927Z,93092.28
2022-09-14T00:56:27.438Z,93096.81
2022-09-14T00:57:35.671Z,93104.56
2022-09-14T00:58:37.717Z,93099.50
2022-09-14T00:59:41.603Z,93104.00
2022-09-14T01:00:43.101Z,93096.28
2022-09-14T01:01:45.364Z,93096.28
2022-09-14T01:02:46.951Z,93098.94
2022-09-14T01:03:48.694Z,93097.31
2022-09-14T01:04:51.667Z,93103.75
2022-09-14T01:06:02.329Z,93102.09
2022-09-14T01:07:09.727Z,93100.00
2022-09-14T01:08:27.782Z,93098.63
2022-09-14T01:09:35.262Z,93106.31
2022-09-14T01:10:52.516Z,93102.50
2022-09-14T01:12:09.522Z,93099.84
2022-09-14T01:13:24.185Z,93106.31
2022-09-14T01:14:32.115Z,93100.75
2022-09-14T01:15:42.722Z,93102.84
2022-09-14T01:16:51.778Z,93105.00
2022-09-14T01:17:58.612Z,93101.44
2022-09-14T01:19:03.912Z,93094.53
2022-09-14T01:20:20.696Z,93096.09
2022-09-14T01:21:26.463Z,93089.72
2022-09-14T01:22:35.104Z,93083.84
2022-09-14T01:23:46.984Z,93078.66
2022-09-14T01:24:53.019Z,93082.75
2022-09-14T01:26:28.217Z,93075.25
2022-09-14T01:27:35.383Z,93070.19
2022-09-14T01:28:43.588Z,93068.03
2022-09-14T01:29:49.793Z,93064.66
2022-09-14T01:30:53.970Z,93063.53
2022-09-14T01:32:02.092Z,93064.78
2022-09-14T01:33:09.695Z,93067.31
2022-09-14T01:34:16.535Z,93059.44
2022-09-14T01:35:25.843Z,93060.19
2022-09-14T01:36:31.240Z,93062.56
2022-09-14T01:37:36.637Z,93060.31
2022-09-14T01:38:42.619Z,93038.13
2022-09-14T01:39:48.807Z,93044.81
2022-09-14T01:40:51.093Z,93056.81
2022-09-14T01:41:55.460Z,93045.50
2022-09-14T01:43:02.130Z,93033.78
2022-09-14T01:44:09.325Z,93045.59
2022-09-14T01:45:14.867Z,93055.16
2022-09-14T01:46:19.336Z,93051.63
2022-09-14T01:47:24.262Z,93040.78
2022-09-14T01:48:35.279Z,93031.66
2022-09-14T01:49:42.190Z,93024.66
2022-09-14T01:50:46.202Z,93043.56
2022-09-14T01:51:49.999Z,93042.53
2022-09-14T01:52:57.869Z,93027.34
2022-09-14T01:54:07.331Z,93036.63
2022-09-14T01:55:15.108Z,93044.94
2022-09-14T01:56:21.873Z,93023.13
2022-09-14T01:57:28.639Z,93052.41
2022-09-14T01:58:36.229Z,93066.84
2022-09-14T01:59:40.933Z,93015.16
2022-09-14T02:00:45.053Z,93018.31
2022-09-14T02:01:51.849Z,93045.59
2022-09-14T02:02:56.509Z,93066.72
2022-09-14T02:04:04.168Z,93047.16
2022-09-14T02:05:09.347Z,93039.72
2022-09-14T02:06:19.329Z,93072.31
2022-09-14T02:07:20.752Z,93061.91
2022-09-14T02:08:22.699Z,93064.06
2022-09-14T02:09:25.511Z,93057.66
2022-09-14T02:10:27.301Z,93059.84
2022-09-14T02:11:28.906Z,93054.66
2022-09-14T02:12:30.626Z,93064.53
2022-09-14T02:13:33.867Z,93065.59
2022-09-14T02:14:35.712Z,93088.88
2022-09-14T02:15:38.786Z,93067.59
2022-09-14T02:16:40.695Z,93058.91
2022-09-14T02:17:43.365Z,93066.09
2022-09-14T02:18:44.887Z,93072.88
2022-09-14T02:19:52.103Z,93075.06
2022-09-14T02:20:55.857Z,93073.13
2022-09-14T02:21:57.301Z,93071.47
2022-09-14T02:22:59.313Z,93073.25
2022-09-14T02:24:01.446Z,93071.69
2022-09-14T02:25:03.775Z,93077.63
2022-09-14T02:26:05.463Z,93073.03
2022-09-14T02:27:07.700Z,93076.00
2022-09-14T02:28:09.193Z,93075.75
2022-09-14T02:29:12.242Z,93073.09
2022-09-14T02:30:14.739Z,93074.47
2022-09-14T02:31:23.913Z,93078.44
2022-09-14T02:32:35.220Z,93078.66
2022-09-14T02:33:41.464Z,93085.94
2022-09-14T02:34:53.748Z,93087.53
2022-09-14T02:36:00.058Z,93088.88
2022-09-14T02:37:10.376Z,93086.16
2022-09-14T02:38:21.378Z,93087.53
2022-09-14T02:39:31.285Z,93083.56
2022-09-14T02:40:35.925Z,93088.88
2022-09-14T02:41:43.226Z,93088.31
2022-09-14T02:42:55.123Z,93085.41
2022-09-14T02:44:03.422Z,93088.31
2022-09-14T02:45:16.997Z,93080.53
2022-09-14T02:46:26.646Z,93088.31
2022-09-14T02:47:33.317Z,93083.22
2022-09-14T02:48:40.587Z,93092.88
2022-09-14T02:49:48.771Z,93087.53
2022-09-14T02:50:56.321Z,93085.41
2022-09-14T02:52:07.463Z,93081.69
2022-09-14T02:53:15.576Z,93087.81
2022-09-14T02:54:24.339Z,93069.91
2022-09-14T02:55:31.120Z,93073.69
2022-09-14T02:56:34.789Z,93065.09
2022-09-14T02:58:04.536Z,93061.91
2022-09-14T02:59:05.980Z,93063.59
2022-09-14T03:00:09.897Z,93064.38
2022-09-14T03:01:13.474Z,93063.28
2022-09-14T03:02:15.108Z,93059.84
2022-09-14T03:03:19.016Z,93055.59
2022-09-14T03:04:20.467Z,93065.97
2022-09-14T03:05:22.106Z,93054.44
2022-09-14T03:06:23.615Z,93046.50
2022-09-14T03:07:25.092Z,93052.31
2022-09-14T03:08:27.285Z,93048.84
2022-09-14T03:09:28.733Z,93044.13
2022-09-14T03:10:30.977Z,93040.66
2022-09-14T03:11:32.417Z,93039.63
2022-09-14T03:12:33.834Z,93041.50
2022-09-14T03:13:36.021Z,93037.78
2022-09-14T03:14:37.428Z,93040.69
2022-09-14T03:15:40.437Z,93041.50
2022-09-14T03:16:41.861Z,93039.06
2022-09-14T03:17:46.624Z,93034.78
2022-09-14T03:18:48.169Z,93034.22
2022-09-14T03:19:49.619Z,93037.19
2022-09-14T03:20:51.066Z,93033.47
2022-09-14T03:21:52.512Z,93035.88
2022-09-14T03:22:54.241Z,93039.63
2022-09-14T03:23:55.660Z,93037.53
2022-09-14T03:24:57.068Z,93032.69
2022-09-14T03:25:58.483Z,93038.56
2022-09-14T03:26:59.887Z,93032.13
2022-09-14T03:28:01.471Z,93038.59
2022-09-14T03:29:03.647Z,93038.88
2022-09-14T03:30:05.969Z,93034.91
2022-09-14T03:31:11.519Z,93038.34
2022-09-14T03:32:13.000Z,93040.75
2022-09-14T03:33:14.497Z,93044.72
2022-09-14T03:34:16.172Z,93037.56
2022-09-14T03:35:17.896Z,93033.56
2022-09-14T03:36:20.127Z,93034.88
2022-09-14T03:37:21.588Z,93041.00
2022-09-14T03:38:23.108Z,93034.63
2022-09-14T03:39:24.540Z,93040.50
2022-09-14T03:40:26.924Z,93041.88
2022-09-14T03:41:28.932Z,93046.94
2022-09-14T03:42:30.665Z,93041.88
2022-09-14T03:43:32.093Z,93047.50
2022-09-14T03:44:33.514Z,93049.91
2022-09-14T03:45:36.849Z,93039.94
2022-09-14T03:46:39.735Z,93045.19
2022-09-14T03:47:41.959Z,93039.06
2022-09-14T03:48:44.283Z,93029.59
2022-09-14T03:49:45.744Z,93040.28
2022-09-14T03:50:47.173Z,93038.16
2022-09-14T03:51:48.590Z,93032.28
2022-09-14T03:52:49.995Z,93034.44
2022-09-14T03:53:51.470Z,93030.78
2022-09-14T03:54:52.932Z,93026.44
2022-09-14T03:55:54.381Z,93031.75
2022-09-14T03:56:55.833Z,93029.06
2022-09-14T03:57:57.298Z,93027.50
2022-09-14T03:58:58.715Z,93035.50
2022-09-14T04:00:00.184Z,93036.00
2022-09-14T04:01:05.420Z,93025.28
2022-09-14T04:02:08.237Z,93036.81
2022-09-14T04:03:09.803Z,93014.91
2022-09-14T04:04:11.728Z,93022.41
2022-09-14T04:05:13.194Z,93018.06
2022-09-14T04:06:15.451Z,93017.22
2022-09-14T04:07:17.366Z,93016.47
2022-09-14T04:08:18.805Z,93013.47
2022-09-14T04:09:20.372Z,93014.03
2022-09-14T04:10:21.799Z,93008.16
2022-09-14T04:11:24.835Z,93011.38
2022-09-14T04:12:26.286Z,93008.97
2022-09-14T04:13:27.740Z,93020.47
2022-09-14T04:14:29.181Z,93018.06
2022-09-14T04:15:30.619Z,93015.88
2022-09-14T04:16:32.303Z,93016.13
2022-09-14T04:17:35.532Z,93016.75
2022-09-14T04:18:36.974Z,93017.78
2022-09-14T04:19:38.398Z,93019.16
2022-09-14T04:20:39.809Z,93021.03
2022-09-14T04:21:41.343Z,93023.97
2022-09-14T04:22:42.791Z,93018.09
2022-09-14T04:24:13.483Z,93023.41
2022-09-14T04:25:06.985Z,93020.28
2022-09-14T04:26:10.255Z,93026.44
2022-09-14T04:27:11.717Z,93028.38
2022-09-14T04:28:20.869Z,93030.47
2022-09-14T04:29:22.602Z,93033.59
2022-09-14T04:30:24.044Z,93032.78
2022-09-14T04:31:26.112Z,93017.06
2022-09-14T04:32:32.058Z,93021.06
2022-09-14T04:33:38.736Z,93016.03
2022-09-14T04:34:40.202Z,93021.09
2022-09-14T04:35:41.620Z,93020.00
2022-09-14T04:36:43.126Z,93010.13
2022-09-14T04:37:44.569Z,93018.13
2022-09-14T04:38:46.731Z,93016.50
2022-09-14T04:39:48.244Z,93021.53
2022-09-14T04:40:49.833Z,93018.88
2022-09-14T04:41:51.288Z,93013.72
2022-09-14T04:42:52.761Z,93018.06
2022-09-14T04:43:55.832Z,93014.81
2022-09-14T04:44:57.285Z,93017.28
2022-09-14T04:46:02.353Z,93021.25
2022-09-14T04:47:04.157Z,93022.03
2022-09-14T04:48:05.784Z,93025.50
2022-09-14T04:49:09.320Z,93031.38
2022-09-14T04:50:10.905Z,93030.06
2022-09-14T04:51:14.124Z,93023.97
2022-09-14T04:52:15.596Z,93016.94
2022-09-14T04:53:17.083Z,93014.59
2022-09-14T04:54:18.569Z,93012.69
2022-09-14T04:55:19.983Z,93012.66
2022-09-14T04:56:22.996Z,93012.16
2022-09-14T04:57:24.441Z,93022.84
2022-09-14T04:58:26.030Z,93017.22
2022-09-14T04:59:27.537Z,93022.34
2022-09-14T05:00:29.026Z,93018.53
2022-09-14T05:01:32.375Z,93016.75
2022-09-14T05:02:33.853Z,93018.56
2022-09-14T05:03:35.802Z,93024.13
2022-09-14T05:04:38.591Z,93022.28
2022-09-14T05:05:44.216Z,93031.38
2022-09-14T05:06:46.264Z,93024.88
2022-09-14T05:07:47.673Z,93029.63
2022-09-14T05:08:50.424Z,93025.41
2022-09-14T05:09:51.892Z,93025.38
2022-09-14T05:10:55.017Z,93030.78
2022-09-14T05:11:56.467Z,93023.81
2022-09-14T05:12:57.889Z,93023.81
2022-09-14T05:14:00.785Z,93029.41
2022-09-14T05:15:02.229Z,93031.06
2022-09-14T05:16:07.803Z,93035.31
2022-09-14T05:17:09.269Z,93033.16
2022-09-14T05:18:10.734Z,93031.81
2022-09-14T05:19:14.665Z,93029.47
2022-09-14T05:20:17.472Z,93033.50
2022-09-14T05:21:20.543Z,93038.22
2022-09-14T05:22:21.991Z,93034.47
2022-09-14T05:23:23.436Z,93042.75
2022-09-14T05:24:25.259Z,93051.28
2022-09-14T05:25:26.687Z,93046.44
2022-09-14T05:26:30.112Z,93058.41
2022-09-14T05:27:31.547Z,93045.63
2022-09-14T05:28:34.111Z,93056.47
2022-09-14T05:29:35.596Z,93052.47
2022-09-14T05:30:39.457Z,93052.13
2022-09-14T05:31:41.005Z,93043.34
2022-09-14T05:32:42.538Z,93046.53
2022-09-14T05:33:44.065Z,93039.88
2022-09-14T05:34:45.522Z,93040.66
2022-09-14T05:35:49.428Z,93040.69
2022-09-14T05:36:50.913Z,93037.69
2022-09-14T05:37:52.325Z,93034.75
2022-09-14T05:38:53.787Z,93036.19
2022-09-14T05:39:55.272Z,93030.53
2022-09-14T05:40:57.062Z,93036.97
2022-09-14T05:41:58.499Z,93037.22
2022-09-14T05:42:59.946Z,93030.78
2022-09-14T05:44:01.638Z,93025.63
2022-09-14T05:45:03.551Z,93025.19
2022-09-14T05:46:06.865Z,93021.50
2022-09-14T05:47:08.378Z,93021.72
2022-09-14T05:48:09.812Z,93014.03
2022-09-14T05:49:11.294Z,93020.19
2022-09-14T05:50:12.744Z,93020.38
2022-09-14T05:51:17.953Z,93021.22
2022-09-14T05:52:19.401Z,93021.50
2022-09-14T05:53:20.812Z,93029.41
2022-09-14T05:54:22.276Z,93023.66
2022-09-14T05:55:23.756Z,93025.03
2022-09-14T05:56:27.309Z,93020.28
2022-09-14T05:57:28.741Z,93018.97
2022-09-14T05:58:30.439Z,93018.94
2022-09-14T05:59:31.921Z,93024.31
2022-09-14T06:00:33.398Z,93022.50
2022-09-14T06:01:34.890Z,93020.25
2022-09-14T06:02:36.373Z,93029.69
2022-09-14T06:03:38.096Z,93030.00
2022-09-14T06:04:39.519Z,93026.25
2022-09-14T06:05:41.060Z,93027.34
2022-09-14T06:06:52.258Z,93025.78
2022-09-14T06:08:05.351Z,93028.47
2022-09-14T06:09:06.761Z,93035.16
2022-09-14T06:10:08.698Z,93042.66
2022-09-14T06:11:12.292Z,93044.81
2022-09-14T06:12:13.803Z,93046.41
2022-09-14T06:13:15.315Z,93039.72
2022-09-14T06:14:16.768Z,93039.56
2022-09-14T06:15:18.234Z,93036.66
2022-09-14T06:16:21.419Z,93027.28
2022-09-14T06:17:23.033Z,93037.09
2022-09-14T06:18:24.460Z,93038.13
2022-09-14T06:19:25.935Z,93032.59
2022-09-14T06:20:27.414Z,93041.16
2022-09-14T06:21:30.565Z,93045.63
2022-09-14T06:22:33.486Z,93038.25
2022-09-14T06:23:35.268Z,93035.59
2022-09-14T06:24:36.736Z,93035.59
2022-09-14T06:25:38.199Z,93027.59
2022-09-14T06:26:40.373Z,93036.31
2022-09-14T06:27:41.804Z,93039.06
2022-09-14T06:28:43.533Z,93031.56
2022-09-14T06:29:44.991Z,93037.09
2022-09-14T06:30:46.457Z,93025.97
2022-09-14T06:31:47.856Z,93031.47
2022-09-14T06:32:49.296Z,93039.28
2022-09-14T06:33:51.787Z,93037.38
2022-09-14T06:34:53.239Z,93033.75
2022-09-14T06:35:55.915Z,93035.03
2022-09-14T06:36:57.379Z,93033.19
2022-09-14T06:38:00.147Z,93038.41
2022-09-14T06:39:01.588Z,93037.47
2022-09-14T06:40:04.139Z,93035.31
2022-09-14T06:41:07.795Z,93040.19
2022-09-14T06:42:09.236Z,93040.00
2022-09-14T06:43:10.661Z,93045.84
2022-09-14T06:44:12.158Z,93037.88
2022-09-14T06:45:13.647Z,93042.13
2022-09-14T06:46:16.824Z,93050.06
2022-09-14T06:47:18.276Z,93043.22
2022-09-14T06:48:19.701Z,93043.22
2022-09-14T06:49:21.134Z,93039.25
2022-09-14T06:50:22.842Z,93041.13
2022-09-14T06:51:27.498Z,93037.94
2022-09-14T06:52:33.585Z,93043.84
2022-09-14T06:53:36.609Z,93043.88
2022-09-14T06:54:38.079Z,93050.00
2022-09-14T06:55:39.520Z,93043.28
2022-09-14T06:56:42.416Z,93041.72
2022-09-14T06:57:43.881Z,93048.91
2022-09-14T06:58:45.932Z,93044.38
2022-09-14T06:59:47.364Z,93037.75
2022-09-14T07:00:48.814Z,93043.78
2022-09-14T07:01:50.333Z,93052.69
2022-09-14T07:02:55.507Z,93046.59
2022-09-14T07:03:57.565Z,93051.13
2022-09-14T07:04:59.032Z,93047.94
2022-09-14T07:06:04.877Z,93047.94
2022-09-14T07:07:06.300Z,93045.53
2022-09-14T07:08:11.939Z,93055.41
2022-09-14T07:09:16.234Z,93050.88
2022-09-14T07:10:17.701Z,93048.25
2022-09-14T07:11:21.944Z,93054.69
2022-09-14T07:12:23.388Z,93049.88
2022-09-14T07:13:25.069Z,93047.81
2022-09-14T07:14:30.349Z,93047.03
2022-09-14T07:15:33.697Z,93041.41
2022-09-14T07:16:36.351Z,93044.34
2022-09-14T07:17:37.781Z,93055.06
2022-09-14T07:18:39.945Z,93054.56
2022-09-14T07:19:41.421Z,93048.16
2022-09-14T07:20:42.849Z,93050.03
2022-09-14T07:21:44.316Z,93050.03
2022-09-14T07:22:45.748Z,93051.38
2022-09-14T07:23:48.007Z,93051.38
2022-09-14T07:24:50.758Z,93062.34
2022-09-14T07:26:00.242Z,93058.09
2022-09-14T07:27:02.419Z,93061.03
2022-09-14T07:28:03.874Z,93065.31
2022-09-14T07:29:07.870Z,93071.19
2022-09-14T07:30:10.128Z,93060.50
2022-09-14T07:31:18.405Z,93060.22
2022-09-14T07:32:20.056Z,93065.31
2022-09-14T07:33:21.533Z,93065.31
2022-09-14T07:34:23.059Z,93057.03
2022-09-14T07:35:24.460Z,93063.47
2022-09-14T07:36:29.538Z,93058.63
2022-09-14T07:37:34.144Z,93059.72
2022-09-14T07:38:51.543Z,93069.88
2022-09-14T07:39:55.341Z,93067.97
2022-09-14T07:40:57.619Z,93072.03
2022-09-14T07:41:59.087Z,93073.91
2022-09-14T07:43:00.501Z,93070.16
2022-09-14T07:44:03.754Z,93068.81
2022-09-14T07:45:06.381Z,93068.56
2022-09-14T07:46:08.129Z,93064.00
2022-09-14T07:47:09.656Z,93073.66
2022-09-14T07:48:11.191Z,93062.94
2022-09-14T07:49:13.846Z,93068.56
2022-09-14T07:50:15.455Z,93076.34
2022-09-14T07:51:16.880Z,93076.34
2022-09-14T07:52:18.340Z,93078.47
2022-09-14T07:53:19.843Z,93081.69
2022-09-14T07:54:21.292Z,93065.88
2022-09-14T07:55:24.106Z,93070.97
2022-09-14T07:56:25.675Z,93067.50
2022-09-14T07:57:52.332Z,93062.94
2022-09-14T07:58:55.481Z,93062.91
2022-09-14T07:59:59.907Z,93058.38
2022-09-14T08:01:04.188Z,93061.59
2022-09-14T08:02:07.111Z,93060.47
2022-09-14T08:03:08.677Z,93061.28
2022-09-14T08:04:10.101Z,93068.72
2022-09-14T08:05:11.624Z,93068.75
2022-09-14T08:06:14.912Z,93074.38
2022-09-14T08:07:16.406Z,93073.56
2022-09-14T08:08:17.843Z,93079.94
2022-09-14T08:09:19.268Z,93074.34
2022-09-14T08:10:20.825Z,93079.41
2022-09-14T08:11:25.613Z,93079.88
2022-09-14T08:12:27.087Z,93075.06
2022-09-14T08:13:28.525Z,93071.81
2022-09-14T08:14:29.952Z,93068.59
2022-09-14T08:15:31.374Z,93076.28
2022-09-14T08:16:34.087Z,93077.63
2022-09-14T08:17:35.635Z,93074.16
2022-09-14T08:18:37.890Z,93079.81
2022-09-14T08:19:39.379Z,93080.84
2022-09-14T08:20:40.824Z,93079.53
2022-09-14T08:21:46.591Z,93083.41
2022-09-14T08:22:48.603Z,93086.56
2022-09-14T08:23:50.143Z,93091.84
2022-09-14T08:24:51.556Z,93096.22
2022-09-14T08:25:52.995Z,93100.72
2022-09-14T08:26:55.878Z,93097.19
2022-09-14T08:27:57.352Z,93109.16
2022-09-14T08:28:58.871Z,93110.97
2022-09-14T08:30:00.364Z,93114.25
2022-09-14T08:31:03.585Z,93107.47
2022-09-14T08:32:05.525Z,93107.84
2022-09-14T08:33:07.295Z,93105.91
2022-09-14T08:34:08.726Z,93101.84
2022-09-14T08:35:10.142Z,93094.72
2022-09-14T08:36:14.157Z,93093.31
2022-09-14T08:37:15.621Z,93099.53
2022-09-14T08:38:17.050Z,93093.84
2022-09-14T08:39:18.820Z,93101.41
2022-09-14T08:40:20.388Z,93103.59
2022-09-14T08:42:30.275Z,93115.25
2022-09-14T08:43:32.735Z,93119.56
2022-09-14T08:44:40.466Z,93127.38
2022-09-14T08:45:43.661Z,93122.84
2022-09-14T08:46:48.002Z,93126.31
2022-09-14T08:47:51.601Z,93134.16
2022-09-14T08:48:53.747Z,93123.28
2022-09-14T08:50:01.380Z,93123.41
2022-09-14T08:51:04.857Z,93129.13
2022-09-14T08:52:13.294Z,93131.16
2022-09-14T08:53:14.737Z,93135.19
2022-09-14T08:54:16.234Z,93130.91
2022-09-14T08:55:29.789Z,93125.97
2022-09-14T08:56:33.883Z,93130.97
2022-09-14T08:57:43.549Z,93132.38
2022-09-14T08:58:57.945Z,93134.28
2022-09-14T09:00:06.614Z,93136.38
2022-09-14T09:01:22.456Z,93137.53
2022-09-14T09:02:36.025Z,93146.06
2022-09-14T09:03:56.637Z,93141.78
2022-09-14T09:05:03.635Z,93135.34
2022-09-14T09:06:15.813Z,93130.09
2022-09-14T09:07:22.455Z,93132.94
2022-09-14T09:08:34.447Z,93126.78
2022-09-14T09:09:42.714Z,93125.09
2022-09-14T09:10:46.309Z,93123.25
2022-09-14T09:11:51.492Z,93119.72
2022-09-14T09:12:57.231Z,93123.19
2022-09-14T09:13:59.483Z,93120.25
2022-09-14T09:15:04.668Z,93131.91
2022-09-14T09:16:09.060Z,93136.94
2022-09-14T09:17:15.375Z,93127.19
2022-09-14T09:18:22.345Z,93129.88
2022-09-14T09:19:28.929Z,93140.88
2022-09-14T09:20:33.391Z,93143.69
2022-09-14T09:21:40.695Z,93130.38
2022-09-14T09:22:44.886Z,93140.91
2022-09-14T09:23:46.622Z,93136.41
2022-09-14T09:24:52.444Z,93140.03
2022-09-14T09:25:59.471Z,93133.16
2022-09-14T09:27:01.107Z,93139.88
2022-09-14T09:28:11.737Z,93139.81
2022-09-14T09:29:13.218Z,93144.00
2022-09-14T09:30:15.687Z,93145.47
2022-09-14T09:31:19.309Z,93141.16
2022-09-14T09:32:23.246Z,93145.38
2022-09-14T09:33:27.162Z,93144.25
2022-09-14T09:34:29.971Z,93133.66
2022-09-14T09:35:32.297Z,93134.22
2022-09-14T09:36:36.898Z,93138.09
2022-09-14T09:37:39.706Z,93132.94
2022-09-14T09:38:41.520Z,93133.09
2022-09-14T09:39:44.295Z,93136.56
2022-09-14T09:40:49.018Z,93135.59
2022-09-14T09:41:55.853Z,93131.94
2022-09-14T09:43:10.571Z,93128.91
2022-09-14T09:44:12.215Z,93124.97
2022-09-14T09:45:13.844Z,93119.38
2022-09-14T09:46:15.446Z,93119.31
2022-09-14T09:47:24.527Z,93129.28
2022-09-14T09:48:31.201Z,93113.19
2022-09-14T09:49:36.741Z,93118.72
2022-09-14T09:50:47.189Z,93120.28
2022-09-14T09:51:49.183Z,93125.38
2022-09-14T09:52:53.189Z,93112.44
2022-09-14T09:53:57.378Z,93117.81
2022-09-14T09:55:00.032Z,93111.75
2022-09-14T09:56:02.272Z,93115.19
2022-09-14T09:57:06.687Z,93117.13
2022-09-14T09:58:27.203Z,93113.75
2022-09-14T09:59:32.023Z,93104.84
2022-09-14T10:00:33.563Z,93102.44
2022-09-14T10:01:35.870Z,93104.13
2022-09-14T10:02:37.516Z,93096.38
2022-09-14T10:03:40.531Z,93095.19
2022-09-14T10:04:57.555Z,93092.13
2022-09-14T10:07:21.337Z,93097.28
2022-09-14T10:08:22.813Z,93092.53
2022-09-14T10:09:26.630Z,93087.25
2022-09-14T10:10:41.681Z,93085.06
2022-09-14T10:11:43.861Z,93088.22
2022-09-14T10:12:49.666Z,93084.91
2022-09-14T10:13:52.516Z,93086.66
2022-09-14T10:15:15.796Z,93085.13
2022-09-14T10:16:19.767Z,93082.44
2022-09-14T10:17:23.082Z,93071.50
2022-09-14T10:18:27.143Z,93069.22
2022-09-14T10:19:28.848Z,93066.97
2022-09-14T10:20:30.377Z,93061.88
2022-09-14T10:21:31.822Z,93062.06
2022-09-14T10:22:34.718Z,93064.56
2022-09-14T10:23:37.434Z,93058.06
2022-09-14T10:24:39.023Z,93065.50
2022-09-14T10:25:40.581Z,93059.34
2022-09-14T10:26:42.071Z,93060.66
2022-09-14T10:27:47.180Z,93062.38
2022-09-14T10:28:50.390Z,93054.88
2022-09-14T10:29:55.727Z,93052.94
2022-09-14T10:31:02.243Z,93049.16
2022-09-14T10:32:14.937Z,93048.88
2022-09-14T10:33:17.033Z,93041.63
2022-09-14T10:34:19.852Z,93039.47
2022-09-14T10:35:23.962Z,93038.38
2022-09-14T10:36:29.145Z,93037.63
2022-09-14T10:37:36.092Z,93042.28
2022-09-14T10:38:42.465Z,93030.16
2022-09-14T10:39:51.498Z,93044.34
2022-09-14T10:41:05.116Z,93035.69
2022-09-14T10:42:17.500Z,93034.09
2022-09-14T10:43:26.849Z,93034.44
2022-09-14T10:44:45.951Z,93033.63
2022-09-14T10:45:55.311Z,93035.31
2022-09-14T10:47:15.696Z,93036.25
2022-09-14T10:48:40.832Z,93030.09
2022-09-14T10:49:53.924Z,93025.13
2022-09-14T10:51:02.717Z,93017.78
2022-09-14T10:52:14.713Z,93015.69
2022-09-14T10:53:28.027Z,93014.78
2022-09-14T10:54:50.516Z,93011.31
2022-09-14T10:55:59.576Z,93014.00
2022-09-14T10:57:13.402Z,93006.56
2022-09-14T10:58:29.070Z,93012.59
2022-09-14T10:59:36.877Z,93008.66
2022-09-14T11:00:45.330Z,92999.69
2022-09-14T11:02:09.382Z,92996.84
2022-09-14T11:03:23.968Z,93000.91
2022-09-14T11:04:43.174Z,92998.56
2022-09-14T11:05:52.071Z,92999.22
2022-09-14T11:07:00.949Z,92999.31
2022-09-14T11:08:12.667Z,92997.31
2022-09-14T11:09:21.392Z,93002.41
2022-09-14T11:10:31.547Z,92991.72
2022-09-14T11:11:44.111Z,92995.94
2022-09-14T11:12:55.462Z,92992.47
2022-09-14T11:14:12.031Z,92992.25
2022-09-14T11:15:24.980Z,92993.19
2022-09-14T11:16:52.565Z,92988.88
2022-09-14T11:18:12.729Z,92987.38
2022-09-14T11:19:25.190Z,92980.88
2022-09-14T11:20:37.455Z,92991.88
2022-09-14T11:21:46.343Z,92993.03
2022-09-14T11:22:58.394Z,92982.28
2022-09-14T11:24:06.314Z,92992.88
2022-09-14T11:25:13.827Z,92985.34
2022-09-14T11:26:22.261Z,92988.41
2022-09-14T11:27:28.453Z,92985.41
2022-09-14T11:28:34.844Z,92982.97
2022-09-14T11:29:44.155Z,92993.94
2022-09-14T11:30:50.562Z,92979.69
2022-09-14T11:32:16.894Z,92986.91
2022-09-14T11:33:22.808Z,92979.28
2022-09-14T11:34:27.840Z,92979.31
2022-09-14T11:35:34.075Z,92982.75
2022-09-14T11:36:41.173Z,92974.09
2022-09-14T11:37:48.261Z,92966.69
2022-09-14T11:38:55.430Z,92974.03
2022-09-14T11:40:04.986Z,92960.66
2022-09-14T11:41:17.715Z,92959.94
2022-09-14T11:42:24.003Z,92962.28
2022-09-14T11:43:35.515Z,92961.63
2022-09-14T11:44:38.428Z,92960.69
2022-09-14T11:45:44.868Z,92965.84
2022-09-14T11:46:50.450Z,92974.94
2022-09-14T11:47:59.232Z,92966.72
2022-09-14T11:49:09.610Z,92964.28
2022-09-14T11:50:18.381Z,92968.53
2022-09-14T11:51:24.080Z,92961.03
2022-09-14T11:52:27.540Z,92961.16
2022-09-14T11:53:30.766Z,92964.44
2022-09-14T11:54:32.299Z,92972.88
2022-09-14T11:55:34.814Z,92971.72
2022-09-14T11:56:36.372Z,92977.47
2022-09-14T11:57:38.136Z,92969.72
2022-09-14T11:58:39.722Z,92973.31
2022-09-14T11:59:52.716Z,92968.53
2022-09-14T12:01:25.469Z,92967.59
2022-09-14T12:02:58.281Z,92969.72
2022-09-14T12:04:10.588Z,92967.38
2022-09-14T12:05:28.937Z,92973.03
2022-09-14T12:06:55.555Z,92969.94
2022-09-14T12:08:32.148Z,92966.25
2022-09-14T12:09:53.964Z,92971.34
2022-09-14T12:11:04.825Z,92962.06
2022-09-14T12:12:34.252Z,92960.38
2022-09-14T12:13:36.884Z,92965.97
2022-09-14T12:14:40.411Z,92969.91
2022-09-14T12:15:42.463Z,92967.28
2022-09-14T12:17:22.787Z,92962.44
2022-09-14T12:18:28.536Z,92972.53
2022-09-14T12:19:31.851Z,92968.53
2022-09-14T12:20:42.767Z,92971.09
2022-09-14T12:21:44.420Z,92969.97
2022-09-14T12:22:50.007Z,92973.63
2022-09-14T12:23:53.364Z,92978.41
2022-09-14T12:25:00.372Z,92970.84
2022-09-14T12:26:14.813Z,92976.50
2022-09-14T12:27:22.172Z,92976.72
2022-09-14T12:28:29.739Z,92980.38
2022-09-14T12:29:33.499Z,92981.44
2022-09-14T12:31:12.225Z,92984.09
2022-09-14T12:32:37.803Z,92984.50
2022-09-14T12:33:44.336Z,92984.44
2022-09-14T12:35:08.057Z,92988.38
2022-09-14T12:36:11.200Z,92978.81
2022-09-14T12:37:31.552Z,92975.19
2022-09-14T12:38:41.573Z,92976.88
2022-09-14T12:40:34.580Z,92986.53
2022-09-14T12:42:25.476Z,92982.00
2022-09-14T12:43:53.107Z,92979.69
2022-09-14T12:44:54.645Z,92971.25
2022-09-14T12:46:01.145Z,92972.94
2022-09-14T12:47:40.214Z,92965.78
2022-09-14T12:49:02.964Z,92970.72